Time;durP1;ratioP1;P1;durP2;ratioP2;P2;SDS_P1;SDS_P2;PMS_P1;PMS_P2;Temp;Humidity;BMP_temperature;BMP_pressure;BME280_temperature;BME280_humidity;BME280_pressure;Samples;Min_cycle;Max_cycle;Signal;HPM_P1;HPM_P2
2023/06/22 00:01:54;;;;;;;;;;;19.30;99.90;;;;;;5122284;27;19915;-44
2023/06/22 00:04:19;;;;;;;;;;;19.30;99.90;;;;;;5114490;28;19908;-42
2023/06/22 00:06:45;;;;;;;;;;;19.20;99.90;;;;;;5114456;28;19960;-42
2023/06/22 00:09:10;;;;;;;;;;;19.10;99.90;;;;;;5128423;27;19923;-43
2023/06/22 00:11:37;;;;;;;;;;;19.10;99.90;;;;;;5134907;27;19907;-43
2023/06/22 00:14:02;;;;;;;;;;;19.10;99.90;;;;;;5135569;27;19931;-42
2023/06/22 00:16:28;;;;;;;;;;;19.10;99.90;;;;;;5135528;27;20269;-44
2023/06/22 00:18:53;;;;;;;;;;;19.10;99.90;;;;;;5134278;27;19915;-42
2023/06/22 00:21:20;;;;;;;;;;;19.10;99.90;;;;;;5135153;27;19907;-42
2023/06/22 00:23:46;;;;;;;;;;;19.00;99.90;;;;;;5135499;27;19914;-42
2023/06/22 00:26:11;;;;;;;;;;;19.00;99.90;;;;;;5134537;27;19907;-43
2023/06/22 00:28:37;;;;;;;;;;;19.00;99.90;;;;;;5134909;27;19972;-43
2023/06/22 00:31:02;;;;;;;;;;;19.00;99.90;;;;;;5135310;27;19907;-43
2023/06/22 00:33:28;;;;;;;;;;;18.90;99.90;;;;;;5134337;27;19907;-44
2023/06/22 00:35:53;;;;;;;;;;;18.90;99.90;;;;;;5135115;27;19956;-43
2023/06/22 00:38:19;;;;;;;;;;;18.90;99.90;;;;;;5134425;27;19920;-42
2023/06/22 00:40:45;;;;;;;;;;;18.90;99.90;;;;;;5134281;27;19911;-44
2023/06/22 00:43:10;;;;;;;;;;;18.90;99.90;;;;;;5134959;27;19934;-44
2023/06/22 00:45:36;;;;;;;;;;;18.80;99.90;;;;;;5134960;27;19942;-43
2023/06/22 00:48:02;;;;;;;;;;;18.80;99.90;;;;;;5134060;27;19912;-43
2023/06/22 00:50:33;;;;;;;;;;;18.80;99.90;;;;;;5134705;27;19912;-43
2023/06/22 00:53:00;;;;;;;;;;;18.70;99.90;;;;;;5134826;27;19907;-43
2023/06/22 00:55:26;;;;;;;;;;;18.70;99.90;;;;;;5133847;27;19912;-42
2023/06/22 00:57:55;;;;;;;;;;;18.70;99.90;;;;;;5134613;27;20380;-44
2023/06/22 01:00:24;;;;;;;;;;;18.70;99.90;;;;;;5133849;27;20055;-44
2023/06/22 01:02:51;;;;;;;;;;;18.60;99.90;;;;;;5134666;27;19994;-45
2023/06/22 01:05:17;;;;;;;;;;;18.70;99.90;;;;;;5134439;27;20162;-42
2023/06/22 01:07:54;;;;;;;;;;;18.70;99.90;;;;;;5133550;27;19911;-44
2023/06/22 01:10:30;;;;;;;;;;;18.60;99.90;;;;;;5134467;27;19922;-44
2023/06/22 01:12:58;;;;;;;;;;;18.60;99.90;;;;;;5134496;27;19907;-42
2023/06/22 01:15:38;;;;;;;;;;;18.60;99.90;;;;;;5133536;27;19912;-43
2023/06/22 01:18:04;;;;;;;;;;;18.50;99.90;;;;;;5131814;27;19922;-44
2023/06/22 01:20:30;;;;;;;;;;;18.50;99.90;;;;;;5125471;27;20045;-44
2023/06/22 01:22:56;;;;;;;;;;;18.40;99.90;;;;;;5133407;27;20319;-43
2023/06/22 01:25:28;;;;;;;;;;;18.40;99.90;;;;;;5121524;27;19908;-42
2023/06/22 01:28:26;;;;;;;;;;;18.40;99.90;;;;;;5118952;27;19998;-42
2023/06/22 01:31:03;;;;;;;;;;;18.30;99.90;;;;;;5077564;27;19919;-44
2023/06/22 01:33:30;;;;;;;;;;;18.30;99.90;;;;;;5134111;27;19990;-43
2023/06/22 01:35:56;;;;;;;;;;;18.20;99.90;;;;;;5133211;27;19933;-44
2023/06/22 01:38:22;;;;;;;;;;;18.20;99.90;;;;;;5133647;27;20328;-43
2023/06/22 01:40:48;;;;;;;;;;;18.10;99.90;;;;;;5133877;27;20271;-44
2023/06/22 01:43:14;;;;;;;;;;;18.10;99.90;;;;;;5133073;27;19912;-44
2023/06/22 01:45:39;;;;;;;;;;;18.10;99.90;;;;;;5133630;27;20281;-43
2023/06/22 01:48:05;;;;;;;;;;;18.10;99.90;;;;;;5133646;27;20321;-43
2023/06/22 01:50:31;;;;;;;;;;;18.00;99.90;;;;;;5133152;27;20482;-43
2023/06/22 01:52:56;;;;;;;;;;;18.00;99.90;;;;;;5133790;27;19990;-42
2023/06/22 01:55:22;;;;;;;;;;;17.90;99.90;;;;;;5133444;27;19907;-43
2023/06/22 01:57:47;;;;;;;;;;;17.80;99.90;;;;;;5132904;27;19919;-44
2023/06/22 02:00:17;;;;;;;;;;;17.80;99.90;;;;;;5133695;28;20327;-43
2023/06/22 02:02:45;;;;;;;;;;;17.70;99.90;;;;;;5133778;28;20315;-42
2023/06/22 02:05:11;;;;;;;;;;;17.60;99.90;;;;;;5132537;28;19950;-43
2023/06/22 02:07:49;;;;;;;;;;;17.40;99.90;;;;;;5113613;28;19978;-42
2023/06/22 02:10:19;;;;;;;;;;;17.40;99.90;;;;;;5112964;28;19972;-43
2023/06/22 02:12:45;;;;;;;;;;;17.20;99.90;;;;;;5112372;28;20007;-45
2023/06/22 02:15:12;;;;;;;;;;;17.20;99.90;;;;;;5129253;28;19912;-43
2023/06/22 02:17:38;;;;;;;;;;;17.20;99.90;;;;;;5132862;28;19908;-42
2023/06/22 02:20:08;;;;;;;;;;;17.20;99.90;;;;;;5133480;28;20396;-42
2023/06/22 02:22:34;;;;;;;;;;;17.20;99.90;;;;;;5133623;28;19907;-44
2023/06/22 02:24:59;;;;;;;;;;;17.10;99.90;;;;;;5132556;28;19919;-47
2023/06/22 02:27:25;;;;;;;;;;;17.10;99.90;;;;;;5133430;28;19908;-42
2023/06/22 02:29:50;;;;;;;;;;;17.20;99.90;;;;;;5135019;27;19997;-43
2023/06/22 02:32:17;;;;;;;;;;;17.20;99.90;;;;;;5136713;27;19912;-43
2023/06/22 02:34:47;;;;;;;;;;;17.20;99.90;;;;;;5137355;27;19915;-43
2023/06/22 02:37:14;;;;;;;;;;;17.20;99.90;;;;;;5137150;27;20408;-43
2023/06/22 02:39:40;;;;;;;;;;;17.10;99.90;;;;;;5136731;27;19907;-44
2023/06/22 02:42:05;;;;;;;;;;;17.10;99.90;;;;;;5136971;27;19919;-43
2023/06/22 02:44:31;;;;;;;;;;;17.10;99.90;;;;;;5136902;27;19912;-44
2023/06/22 02:46:56;;;;;;;;;;;17.10;99.90;;;;;;5136359;27;20541;-43
2023/06/22 02:49:22;;;;;;;;;;;17.10;99.90;;;;;;5137018;27;19920;-44
2023/06/22 02:51:48;;;;;;;;;;;17.10;99.90;;;;;;5136915;27;19908;-45
2023/06/22 02:54:13;;;;;;;;;;;17.10;99.90;;;;;;5136355;27;19908;-44
2023/06/22 02:56:40;;;;;;;;;;;17.10;99.90;;;;;;5137133;27;19937;-44
2023/06/22 02:59:06;;;;;;;;;;;17.10;99.90;;;;;;5137279;27;20258;-45
2023/06/22 03:01:37;;;;;;;;;;;17.10;99.90;;;;;;5136254;27;19933;-43
2023/06/22 03:04:03;;;;;;;;;;;17.10;99.90;;;;;;5136378;27;20366;-44
2023/06/22 03:06:29;;;;;;;;;;;17.10;99.90;;;;;;5137040;27;19908;-44
2023/06/22 03:09:01;;;;;;;;;;;17.10;99.90;;;;;;5136046;27;20369;-43
2023/06/22 03:11:26;;;;;;;;;;;17.00;99.90;;;;;;5136452;27;19916;-45
2023/06/22 03:13:52;;;;;;;;;;;17.00;99.90;;;;;;5135518;27;19918;-43
2023/06/22 03:16:18;;;;;;;;;;;17.00;99.90;;;;;;5136648;27;19914;-43
2023/06/22 03:18:44;;;;;;;;;;;16.90;99.90;;;;;;5136650;27;20422;-43
2023/06/22 03:21:09;;;;;;;;;;;16.90;99.90;;;;;;5135820;27;19925;-44
2023/06/22 03:23:36;;;;;;;;;;;16.90;99.90;;;;;;5136336;27;20289;-44
2023/06/22 03:26:01;;;;;;;;;;;16.80;99.90;;;;;;5136428;27;20366;-45
2023/06/22 03:28:27;;;;;;;;;;;16.70;99.90;;;;;;5135498;27;19922;-44
2023/06/22 03:30:52;;;;;;;;;;;16.60;99.90;;;;;;5136474;27;20283;-44
2023/06/22 03:33:18;;;;;;;;;;;16.70;99.90;;;;;;5135902;27;20349;-44
2023/06/22 03:35:43;;;;;;;;;;;16.70;99.90;;;;;;5135613;27;19911;-45
2023/06/22 03:38:09;;;;;;;;;;;16.60;99.90;;;;;;5135938;27;19919;-44
2023/06/22 03:40:34;;;;;;;;;;;16.70;99.90;;;;;;5135638;27;20346;-44
2023/06/22 03:43:01;;;;;;;;;;;16.70;99.90;;;;;;5134254;27;21594;-44
2023/06/22 03:45:27;;;;;;;;;;;16.70;99.90;;;;;;5136026;27;19994;-43
2023/06/22 03:47:53;;;;;;;;;;;16.70;99.90;;;;;;5136114;27;19953;-44
2023/06/22 03:50:20;;;;;;;;;;;16.70;99.90;;;;;;5135121;27;19915;-43
2023/06/22 03:52:46;;;;;;;;;;;16.70;99.90;;;;;;5135883;27;19939;-44
2023/06/22 03:55:11;;;;;;;;;;;16.70;99.90;;;;;;5135942;27;19918;-42
2023/06/22 03:57:37;;;;;;;;;;;16.70;99.90;;;;;;5135118;27;19907;-45
2023/06/22 04:00:05;;;;;;;;;;;16.70;99.90;;;;;;5135944;27;19911;-43
2023/06/22 04:02:31;;;;;;;;;;;16.80;99.90;;;;;;5135580;27;20250;-43
2023/06/22 04:04:56;;;;;;;;;;;16.80;99.90;;;;;;5135024;27;19911;-43
2023/06/22 04:07:22;;;;;;;;;;;16.80;99.90;;;;;;5135696;27;19908;-42
2023/06/22 04:09:47;;;;;;;;;;;16.80;99.90;;;;;;5135683;27;20318;-41
2023/06/22 04:12:13;;;;;;;;;;;16.80;99.90;;;;;;5134730;27;20403;-45
2023/06/22 04:14:38;;;;;;;;;;;16.80;99.90;;;;;;5135622;27;20306;-44
2023/06/22 04:17:04;;;;;;;;;;;16.80;99.90;;;;;;5135568;27;19930;-46
2023/06/22 04:19:29;;;;;;;;;;;16.80;99.90;;;;;;5134709;27;19908;-44
2023/06/22 04:21:55;;;;;;;;;;;16.80;99.90;;;;;;5135106;27;19967;-44
2023/06/22 04:24:20;;;;;;;;;;;16.80;99.90;;;;;;5134543;27;20336;-43
2023/06/22 04:26:46;;;;;;;;;;;16.90;99.90;;;;;;5135341;27;19908;-44
2023/06/22 04:29:12;;;;;;;;;;;16.90;99.90;;;;;;5135305;27;19915;-44
2023/06/22 04:31:38;;;;;;;;;;;16.90;99.90;;;;;;5134006;27;20019;-45
2023/06/22 04:34:07;;;;;;;;;;;17.00;99.90;;;;;;5134788;27;19965;-45
2023/06/22 04:36:37;;;;;;;;;;;17.00;99.90;;;;;;5135045;27;19908;-47
2023/06/22 04:39:09;;;;;;;;;;;17.10;99.90;;;;;;5134093;27;19926;-45
2023/06/22 04:41:44;;;;;;;;;;;17.10;99.90;;;;;;5134956;27;20282;-43
2023/06/22 04:44:09;;;;;;;;;;;17.20;99.90;;;;;;5134513;27;19922;-45
2023/06/22 04:46:38;;;;;;;;;;;17.20;99.90;;;;;;5134080;27;19911;-43
2023/06/22 04:49:06;;;;;;;;;;;17.20;99.90;;;;;;5134749;27;20391;-45
2023/06/22 04:51:32;;;;;;;;;;;17.30;99.90;;;;;;5134957;27;19915;-44
2023/06/22 04:54:00;;;;;;;;;;;17.40;99.90;;;;;;5133362;27;19907;-42
2023/06/22 04:56:27;;;;;;;;;;;17.40;99.90;;;;;;5134670;27;19911;-43
2023/06/22 04:58:55;;;;;;;;;;;17.50;99.90;;;;;;5134823;27;20297;-43
2023/06/22 05:01:22;;;;;;;;;;;17.50;99.90;;;;;;5133985;27;19908;-43
2023/06/22 05:03:48;;;;;;;;;;;17.60;99.90;;;;;;5134416;27;20365;-44
2023/06/22 05:06:14;;;;;;;;;;;17.60;99.90;;;;;;5134250;27;19916;-46
2023/06/22 05:08:40;;;;;;;;;;;17.70;99.90;;;;;;5133588;27;20369;-43
2023/06/22 05:11:05;;;;;;;;;;;17.70;99.90;;;;;;5134370;27;19907;-42
2023/06/22 05:13:31;;;;;;;;;;;17.80;99.90;;;;;;5133506;27;19908;-43
2023/06/22 05:16:00;;;;;;;;;;;17.80;99.90;;;;;;5134420;27;20384;-43
2023/06/22 05:18:27;;;;;;;;;;;17.80;99.90;;;;;;5134301;27;19953;-43
2023/06/22 05:20:53;;;;;;;;;;;17.90;99.90;;;;;;5133508;27;19907;-43
2023/06/22 05:23:19;;;;;;;;;;;17.90;99.90;;;;;;5134253;27;19912;-43
2023/06/22 05:25:44;;;;;;;;;;;18.00;99.90;;;;;;5133739;27;19984;-45
2023/06/22 05:28:11;;;;;;;;;;;18.00;99.90;;;;;;5133257;27;19911;-44
2023/06/22 05:30:36;;;;;;;;;;;18.10;99.90;;;;;;5134170;27;19908;-43
2023/06/22 05:33:02;;;;;;;;;;;18.10;99.90;;;;;;5134203;27;19907;-43
2023/06/22 05:35:28;;;;;;;;;;;18.10;99.90;;;;;;5132849;27;19908;-42
2023/06/22 05:37:53;;;;;;;;;;;18.20;99.90;;;;;;5133723;27;19919;-45
2023/06/22 05:40:18;;;;;;;;;;;18.20;99.90;;;;;;5133830;27;19907;-43
2023/06/22 05:42:44;;;;;;;;;;;18.30;99.90;;;;;;5133218;27;19912;-46
2023/06/22 05:45:09;;;;;;;;;;;18.40;99.90;;;;;;5132146;27;19911;-44
2023/06/22 05:47:35;;;;;;;;;;;18.40;99.90;;;;;;5126021;27;19912;-44
2023/06/22 05:50:00;;;;;;;;;;;18.50;99.90;;;;;;5129006;27;19930;-44
2023/06/22 05:52:26;;;;;;;;;;;18.60;99.90;;;;;;5116726;27;19920;-48
2023/06/22 05:54:51;;;;;;;;;;;18.60;99.90;;;;;;5118099;27;19911;-44
2023/06/22 05:57:17;;;;;;;;;;;18.70;99.90;;;;;;5123382;28;20336;-44
2023/06/22 05:59:42;;;;;;;;;;;18.80;99.90;;;;;;5122749;27;19911;-42
2023/06/22 06:02:08;;;;;;;;;;;18.80;99.90;;;;;;5131207;28;20373;-45
2023/06/22 06:04:34;;;;;;;;;;;19.00;99.90;;;;;;5123900;27;19914;-43
2023/06/22 06:07:01;;;;;;;;;;;19.00;99.90;;;;;;5119828;28;20304;-44
2023/06/22 06:09:26;;;;;;;;;;;19.10;99.90;;;;;;5113528;28;19933;-43
2023/06/22 06:11:52;;;;;;;;;;;19.10;99.90;;;;;;5126933;28;20824;-43
2023/06/22 06:14:17;;;;;;;;;;;19.20;99.90;;;;;;5122544;28;19908;-43
2023/06/22 06:16:43;;;;;;;;;;;19.30;99.90;;;;;;5122615;28;20270;-44
2023/06/22 06:19:08;;;;;;;;;;;19.30;99.90;;;;;;5126492;28;19937;-44
2023/06/22 06:21:34;;;;;;;;;;;19.40;99.90;;;;;;5122247;28;19912;-44
2023/06/22 06:24:00;;;;;;;;;;;19.50;99.90;;;;;;5132583;28;20236;-42
2023/06/22 06:26:29;;;;;;;;;;;19.50;99.90;;;;;;5133137;28;19908;-46
2023/06/22 06:28:56;;;;;;;;;;;19.60;99.90;;;;;;5132581;28;20409;-44
2023/06/22 06:31:21;;;;;;;;;;;19.60;99.90;;;;;;5129254;28;19959;-43
2023/06/22 06:33:46;;;;;;;;;;;19.70;99.90;;;;;;5132314;28;19915;-43
2023/06/22 06:36:12;;;;;;;;;;;19.80;99.90;;;;;;5132045;28;20052;-42
2023/06/22 06:38:37;;;;;;;;;;;19.90;99.90;;;;;;5131412;28;19926;-46
2023/06/22 06:41:03;;;;;;;;;;;19.90;99.90;;;;;;5132637;28;20010;-43
2023/06/22 06:43:28;;;;;;;;;;;20.00;99.90;;;;;;5132547;28;20061;-44
2023/06/22 06:45:54;;;;;;;;;;;20.10;99.90;;;;;;5126125;28;19916;-42
2023/06/22 06:48:19;;;;;;;;;;;20.10;99.90;;;;;;5128596;28;20377;-43
2023/06/22 06:50:45;;;;;;;;;;;20.20;99.90;;;;;;5129465;28;19918;-43
2023/06/22 06:53:10;;;;;;;;;;;20.30;99.90;;;;;;5131612;28;19914;-43
2023/06/22 06:55:36;;;;;;;;;;;20.40;99.90;;;;;;5130469;28;19926;-42
2023/06/22 06:58:02;;;;;;;;;;;20.50;99.90;;;;;;5129809;28;19950;-44
2023/06/22 07:00:28;;;;;;;;;;;20.60;99.90;;;;;;5128488;28;19912;-44
2023/06/22 07:02:53;;;;;;;;;;;20.70;99.90;;;;;;5129979;28;19930;-46
2023/06/22 07:05:19;;;;;;;;;;;20.80;99.90;;;;;;5129585;28;20273;-42
2023/06/22 07:07:44;;;;;;;;;;;20.80;99.90;;;;;;5127890;28;19915;-43
2023/06/22 07:10:10;;;;;;;;;;;20.90;99.90;;;;;;5129182;28;19919;-44
2023/06/22 07:12:36;;;;;;;;;;;20.90;99.90;;;;;;5130113;28;19918;-44
2023/06/22 07:15:05;;;;;;;;;;;21.00;99.90;;;;;;5131387;27;19916;-43
2023/06/22 07:17:30;;;;;;;;;;;21.10;99.90;;;;;;5133757;27;20294;-42
2023/06/22 07:19:56;;;;;;;;;;;21.20;99.90;;;;;;5132212;27;19933;-43
2023/06/22 07:22:21;;;;;;;;;;;21.30;99.90;;;;;;5130436;27;19911;-44
2023/06/22 07:24:47;;;;;;;;;;;21.40;99.90;;;;;;5127941;27;20373;-43
2023/06/22 07:27:12;;;;;;;;;;;21.40;99.90;;;;;;5132839;27;19949;-43
2023/06/22 07:29:40;;;;;;;;;;;21.50;99.90;;;;;;5135369;27;20354;-44
2023/06/22 07:32:06;;;;;;;;;;;21.50;99.90;;;;;;5125965;27;20533;-42
2023/06/22 07:34:31;;;;;;;;;;;21.60;99.90;;;;;;5127749;27;19911;-45
2023/06/22 07:36:57;;;;;;;;;;;21.60;99.90;;;;;;5134070;27;20343;-44
2023/06/22 07:39:25;;;;;;;;;;;21.60;99.90;;;;;;5131794;27;19919;-45
2023/06/22 07:41:51;;;;;;;;;;;21.60;99.90;;;;;;5131434;27;19953;-43
2023/06/22 07:44:16;;;;;;;;;;;21.60;99.90;;;;;;5135133;27;19923;-44
2023/06/22 07:46:42;;;;;;;;;;;21.60;99.90;;;;;;5124886;27;19911;-44
2023/06/22 07:49:08;;;;;;;;;;;21.70;99.90;;;;;;5132987;27;19915;-44
2023/06/22 07:51:33;;;;;;;;;;;21.80;99.90;;;;;;5134541;27;19915;-44
2023/06/22 07:53:59;;;;;;;;;;;21.80;99.90;;;;;;5134698;27;19907;-44
2023/06/22 07:56:24;;;;;;;;;;;21.80;99.90;;;;;;5122438;27;20385;-44
2023/06/22 07:58:50;;;;;;;;;;;21.90;99.90;;;;;;5132266;27;20297;-45
2023/06/22 08:01:16;;;;;;;;;;;21.90;99.90;;;;;;5124011;27;19912;-46
2023/06/22 08:03:42;;;;;;;;;;;21.90;99.90;;;;;;5114080;28;19907;-44
2023/06/22 08:06:09;;;;;;;;;;;22.00;99.90;;;;;;5123638;27;20014;-47
2023/06/22 08:08:37;;;;;;;;;;;22.10;99.90;;;;;;5133059;27;19919;-45
2023/06/22 08:11:03;;;;;;;;;;;22.20;99.90;;;;;;5134838;27;20385;-44
2023/06/22 08:13:29;;;;;;;;;;;22.30;99.90;;;;;;5135188;27;19907;-45
2023/06/22 08:15:54;;;;;;;;;;;22.40;99.90;;;;;;5135902;27;19997;-45
2023/06/22 08:18:20;;;;;;;;;;;22.40;99.90;;;;;;5134557;27;20409;-45
2023/06/22 08:20:45;;;;;;;;;;;22.50;99.90;;;;;;5130691;27;19923;-44
2023/06/22 08:23:11;;;;;;;;;;;22.60;99.90;;;;;;5124866;27;19915;-44
2023/06/22 08:25:36;;;;;;;;;;;22.60;99.90;;;;;;5133844;27;19998;-45
2023/06/22 08:28:03;;;;;;;;;;;22.60;99.90;;;;;;5134622;27;20002;-47
2023/06/22 08:30:28;;;;;;;;;;;22.70;99.90;;;;;;5134735;27;20264;-43
2023/06/22 08:32:55;;;;;;;;;;;22.80;99.90;;;;;;5134718;27;19915;-46
2023/06/22 08:35:22;;;;;;;;;;;22.80;99.90;;;;;;5136542;27;19915;-44
2023/06/22 08:37:51;;;;;;;;;;;22.80;99.90;;;;;;5131849;27;19926;-43
2023/06/22 08:40:17;;;;;;;;;;;22.90;99.90;;;;;;5134413;27;19919;-44
2023/06/22 08:42:43;;;;;;;;;;;22.90;99.90;;;;;;5134760;27;19907;-44
2023/06/22 08:45:08;;;;;;;;;;;23.00;99.90;;;;;;5132830;27;19907;-43
2023/06/22 08:47:34;;;;;;;;;;;23.00;99.90;;;;;;5118626;27;19918;-46
2023/06/22 08:50:02;;;;;;;;;;;23.10;99.90;;;;;;5116584;27;19971;-43
2023/06/22 08:52:27;;;;;;;;;;;23.10;99.90;;;;;;5133866;27;19920;-44
2023/06/22 08:54:53;;;;;;;;;;;23.20;99.90;;;;;;5134280;27;19914;-42
2023/06/22 08:57:18;;;;;;;;;;;23.20;99.90;;;;;;5121334;27;19918;-46
2023/06/22 08:59:44;;;;;;;;;;;23.30;99.90;;;;;;5120614;27;20275;-43
2023/06/22 09:02:09;;;;;;;;;;;23.30;99.90;;;;;;5116810;27;19912;-47
2023/06/22 09:04:35;;;;;;;;;;;23.40;99.90;;;;;;5128136;27;20323;-44
2023/06/22 09:07:01;;;;;;;;;;;23.50;99.90;;;;;;5134705;27;19954;-43
2023/06/22 09:09:26;;;;;;;;;;;23.50;99.90;;;;;;5134637;27;19962;-46
2023/06/22 09:11:52;;;;;;;;;;;23.50;99.90;;;;;;5130892;27;19911;-45
2023/06/22 09:14:17;;;;;;;;;;;23.60;99.90;;;;;;5128104;27;20427;-43
2023/06/22 09:16:43;;;;;;;;;;;23.60;99.90;;;;;;5124950;27;19912;-43
2023/06/22 09:19:08;;;;;;;;;;;23.70;99.90;;;;;;5127193;27;19994;-43
2023/06/22 09:21:34;;;;;;;;;;;23.70;99.90;;;;;;5123282;27;19911;-44
2023/06/22 09:23:59;;;;;;;;;;;23.80;99.90;;;;;;5133647;27;19961;-45
2023/06/22 09:26:25;;;;;;;;;;;23.90;99.90;;;;;;5132791;27;19915;-44
2023/06/22 09:28:51;;;;;;;;;;;23.90;99.90;;;;;;5133493;27;19955;-42
2023/06/22 09:31:16;;;;;;;;;;;24.00;99.90;;;;;;5134013;27;20064;-46
2023/06/22 09:33:42;;;;;;;;;;;24.00;99.90;;;;;;5133218;27;19918;-44
2023/06/22 09:36:08;;;;;;;;;;;24.10;99.90;;;;;;5133766;27;20281;-44
2023/06/22 09:38:36;;;;;;;;;;;24.20;99.90;;;;;;5132903;27;19980;-44
2023/06/22 09:41:02;;;;;;;;;;;24.20;99.90;;;;;;5133036;27;19915;-44
2023/06/22 09:43:28;;;;;;;;;;;24.20;99.90;;;;;;5134089;27;20327;-44
2023/06/22 09:45:53;;;;;;;;;;;24.40;99.90;;;;;;5133916;27;19954;-43
2023/06/22 09:48:19;;;;;;;;;;;24.50;99.90;;;;;;5132956;27;19908;-44
2023/06/22 09:50:44;;;;;;;;;;;24.50;99.90;;;;;;5129123;27;20458;-44
2023/06/22 09:53:10;;;;;;;;;;;24.60;99.90;;;;;;5132000;27;19912;-44
2023/06/22 09:55:35;;;;;;;;;;;24.60;99.90;;;;;;5133842;27;19915;-45
2023/06/22 09:58:01;;;;;;;;;;;24.50;99.90;;;;;;5134360;27;19968;-46
2023/06/22 10:00:26;;;;;;;;;;;24.60;99.90;;;;;;5134217;27;20073;-43
2023/06/22 10:02:52;;;;;;;;;;;24.80;99.90;;;;;;5133898;28;19964;-45
2023/06/22 10:05:17;;;;;;;;;;;24.90;99.90;;;;;;5134034;28;19915;-44
2023/06/22 10:07:43;;;;;;;;;;;25.10;99.90;;;;;;5133810;28;19907;-43
2023/06/22 10:10:10;;;;;;;;;;;25.20;99.90;;;;;;5133004;28;20086;-46
2023/06/22 10:12:35;;;;;;;;;;;25.20;99.90;;;;;;5132879;28;19916;-44
2023/06/22 10:15:01;;;;;;;;;;;25.30;99.90;;;;;;5132955;28;19911;-43
2023/06/22 10:17:26;;;;;;;;;;;25.50;99.90;;;;;;5132622;28;19950;-45
2023/06/22 10:19:52;;;;;;;;;;;25.60;99.90;;;;;;5133270;27;20285;-43
2023/06/22 10:22:17;;;;;;;;;;;25.80;99.90;;;;;;5121887;28;20055;-44
2023/06/22 10:24:44;;;;;;;;;;;25.70;99.90;;;;;;5131464;28;19911;-44
2023/06/22 10:27:13;;;;;;;;;;;25.70;99.90;;;;;;5127825;28;19918;-44
2023/06/22 10:29:39;;;;;;;;;;;25.80;99.90;;;;;;5127484;28;19923;-46
2023/06/22 10:32:04;;;;;;;;;;;25.80;99.90;;;;;;5131357;28;19923;-44
2023/06/22 10:34:30;;;;;;;;;;;25.80;99.90;;;;;;5130963;28;19911;-45
2023/06/22 10:36:55;;;;;;;;;;;25.90;99.90;;;;;;5126419;28;19911;-48
2023/06/22 10:39:21;;;;;;;;;;;26.00;99.90;;;;;;5123429;28;19916;-45
2023/06/22 10:41:46;;;;;;;;;;;26.20;99.90;;;;;;5128896;28;19956;-45
2023/06/22 10:44:12;;;;;;;;;;;26.30;99.90;;;;;;5122300;28;19912;-45
2023/06/22 10:46:38;;;;;;;;;;;26.40;99.90;;;;;;5129451;28;20272;-44
2023/06/22 10:49:03;;;;;;;;;;;26.60;99.90;;;;;;5132641;28;20369;-43
2023/06/22 10:51:29;;;;;;;;;;;26.70;99.90;;;;;;5134388;27;19908;-45
2023/06/22 10:53:54;;;;;;;;;;;26.70;99.90;;;;;;5124212;27;19919;-44
2023/06/22 10:56:20;;;;;;;;;;;26.80;99.90;;;;;;5118843;27;19947;-44
2023/06/22 10:58:45;;;;;;;;;;;26.90;99.90;;;;;;5115931;27;19933;-44
2023/06/22 11:01:11;;;;;;;;;;;26.90;99.90;;;;;;5136747;27;20366;-42
2023/06/22 11:03:36;;;;;;;;;;;26.90;99.90;;;;;;5137122;27;19911;-45
2023/06/22 11:06:02;;;;;;;;;;;27.00;99.90;;;;;;5136138;27;20418;-43
2023/06/22 11:08:28;;;;;;;;;;;27.10;99.90;;;;;;5136714;27;19908;-46
2023/06/22 11:10:53;;;;;;;;;;;27.20;99.90;;;;;;5136929;27;19912;-43
2023/06/22 11:13:19;;;;;;;;;;;27.10;99.90;;;;;;5124457;27;19915;-45
2023/06/22 11:15:44;;;;;;;;;;;27.10;99.90;;;;;;5136494;27;19919;-43
2023/06/22 11:18:10;;;;;;;;;;;27.20;99.90;;;;;;5135729;27;20000;-44
2023/06/22 11:20:38;;;;;;;;;;;27.40;99.90;;;;;;5135615;27;19912;-44
2023/06/22 11:23:07;;;;;;;;;;;27.50;99.90;;;;;;5136458;27;19914;-43
2023/06/22 11:25:34;;;;;;;;;;;27.60;99.90;;;;;;5136150;27;19908;-45
2023/06/22 11:28:03;;;;;;;;;;;27.70;99.90;;;;;;5135907;27;20251;-44
2023/06/22 11:30:29;;;;;;;;;;;27.70;99.90;;;;;;5136328;27;19919;-46
2023/06/22 11:32:56;;;;;;;;;;;27.60;99.90;;;;;;5136439;27;19908;-44
2023/06/22 11:35:21;;;;;;;;;;;27.40;99.90;;;;;;5135605;27;19912;-44
2023/06/22 11:37:47;;;;;;;;;;;27.30;99.90;;;;;;5124775;27;19924;-46
2023/06/22 11:40:12;;;;;;;;;;;27.20;99.90;;;;;;5117288;27;19918;-45
2023/06/22 11:42:38;;;;;;;;;;;27.10;99.90;;;;;;5122532;27;20264;-44
2023/06/22 11:45:04;;;;;;;;;;;27.10;99.90;;;;;;5135956;27;20376;-43
2023/06/22 11:47:30;;;;;;;;;;;27.00;99.90;;;;;;5117527;27;19908;-43
2023/06/22 11:49:55;;;;;;;;;;;27.00;99.90;;;;;;5135948;27;20258;-44
2023/06/22 11:52:21;;;;;;;;;;;26.90;99.90;;;;;;5136033;27;19907;-45
2023/06/22 11:54:46;;;;;;;;;;;26.80;99.90;;;;;;5135205;27;19980;-44
2023/06/22 11:57:12;;;;;;;;;;;26.80;99.90;;;;;;5135974;27;19918;-44
2023/06/22 11:59:38;;;;;;;;;;;26.70;99.90;;;;;;5135940;27;19953;-43
2023/06/22 12:02:05;;;;;;;;;;;26.60;99.90;;;;;;5134218;27;19933;-44
2023/06/22 12:04:30;;;;;;;;;;;26.60;99.90;;;;;;5135818;27;19907;-43
2023/06/22 12:06:56;;;;;;;;;;;26.60;99.90;;;;;;5135535;27;19961;-44
2023/06/22 12:09:21;;;;;;;;;;;26.50;99.90;;;;;;5134802;27;19912;-43
2023/06/22 12:11:47;;;;;;;;;;;26.50;99.90;;;;;;5135658;27;19960;-45
2023/06/22 12:14:12;;;;;;;;;;;26.40;99.90;;;;;;5135577;27;19907;-44
2023/06/22 12:16:38;;;;;;;;;;;26.40;99.90;;;;;;5134276;27;20018;-44
2023/06/22 12:19:04;;;;;;;;;;;26.40;99.90;;;;;;5135562;27;19908;-44
2023/06/22 12:21:29;;;;;;;;;;;26.30;99.90;;;;;;5135461;27;19907;-46
2023/06/22 12:23:54;;;;;;;;;;;26.30;99.90;;;;;;5134750;27;19918;-47
2023/06/22 12:26:20;;;;;;;;;;;26.20;99.90;;;;;;5135060;27;19911;-44
2023/06/22 12:28:47;;;;;;;;;;;26.20;99.90;;;;;;5135619;27;19944;-44
2023/06/22 12:31:12;;;;;;;;;;;26.20;99.90;;;;;;5134468;27;19958;-43
2023/06/22 12:33:38;;;;;;;;;;;26.10;99.90;;;;;;5135176;27;19907;-44
2023/06/22 12:36:04;;;;;;;;;;;26.10;99.90;;;;;;5135154;27;19907;-43
2023/06/22 12:38:30;;;;;;;;;;;26.10;99.90;;;;;;5134141;27;19920;-43
2023/06/22 12:40:55;;;;;;;;;;;26.10;99.90;;;;;;5135052;27;19926;-44
2023/06/22 12:43:21;;;;;;;;;;;26.10;99.90;;;;;;5133021;27;19998;-45
2023/06/22 12:45:46;;;;;;;;;;;26.10;99.90;;;;;;5127598;27;20307;-44
2023/06/22 12:48:12;;;;;;;;;;;26.10;99.90;;;;;;5133036;27;19996;-44
2023/06/22 12:50:38;;;;;;;;;;;26.10;99.90;;;;;;5126407;27;19919;-44
2023/06/22 12:53:04;;;;;;;;;;;26.00;99.90;;;;;;5125002;27;19934;-45
2023/06/22 12:55:29;;;;;;;;;;;26.00;99.90;;;;;;5124207;27;19954;-46
2023/06/22 12:57:55;;;;;;;;;;;26.00;99.90;;;;;;5126236;27;20908;-45
2023/06/22 13:00:21;;;;;;;;;;;25.90;99.90;;;;;;5130110;27;19926;-45
2023/06/22 13:02:46;;;;;;;;;;;25.80;99.90;;;;;;5130450;27;19972;-44
2023/06/22 13:05:12;;;;;;;;;;;25.80;99.90;;;;;;5126751;27;19947;-44
2023/06/22 13:07:37;;;;;;;;;;;25.70;99.90;;;;;;5128007;27;19918;-44
2023/06/22 13:10:03;;;;;;;;;;;25.60;99.90;;;;;;5128591;27;19919;-46
2023/06/22 13:12:28;;;;;;;;;;;25.60;99.90;;;;;;5134616;27;19933;-44
2023/06/22 13:14:54;;;;;;;;;;;25.50;99.90;;;;;;5133204;27;19954;-44
2023/06/22 13:17:20;;;;;;;;;;;25.50;99.90;;;;;;5132640;27;20354;-44
2023/06/22 13:19:46;;;;;;;;;;;25.40;99.90;;;;;;5130936;27;20432;-43
2023/06/22 13:22:31;;;;;;;;;;;25.40;99.90;;;;;;5134372;27;19998;-45
2023/06/22 13:24:58;;;;;;;;;;;25.40;99.90;;;;;;5125960;27;19952;-44
2023/06/22 13:27:23;;;;;;;;;;;25.30;99.90;;;;;;5118537;27;19915;-46
2023/06/22 13:29:49;;;;;;;;;;;25.20;99.90;;;;;;5125014;27;19926;-43
2023/06/22 13:32:14;;;;;;;;;;;25.10;99.90;;;;;;5132071;27;19912;-45
2023/06/22 13:34:40;;;;;;;;;;;25.10;99.90;;;;;;5122574;27;19912;-43
2023/06/22 13:37:05;;;;;;;;;;;25.00;99.90;;;;;;5113074;28;20319;-43
2023/06/22 13:39:31;;;;;;;;;;;24.90;99.90;;;;;;5113317;28;19907;-44
2023/06/22 13:41:57;;;;;;;;;;;24.90;99.90;;;;;;5112755;28;19915;-45
2023/06/22 13:44:23;;;;;;;;;;;24.90;99.90;;;;;;5094946;28;20295;-43
2023/06/22 13:46:48;;;;;;;;;;;24.90;99.90;;;;;;5113043;27;19915;-47
2023/06/22 13:49:14;;;;;;;;;;;24.80;99.90;;;;;;5125047;27;19922;-44
2023/06/22 13:51:39;;;;;;;;;;;24.80;99.90;;;;;;5122187;27;19984;-44
2023/06/22 13:54:04;;;;;;;;;;;24.80;99.90;;;;;;5132671;27;19917;-47
2023/06/22 13:56:30;;;;;;;;;;;24.80;99.90;;;;;;5133639;27;20365;-44
2023/06/22 13:58:55;;;;;;;;;;;24.80;99.90;;;;;;5133605;27;19911;-43
2023/06/22 14:01:21;;;;;;;;;;;24.80;99.90;;;;;;5133041;27;19969;-43
2023/06/22 14:03:48;;;;;;;;;;;24.80;99.90;;;;;;5133748;27;19969;-44
2023/06/22 14:06:13;;;;;;;;;;;24.70;99.90;;;;;;5133334;28;20350;-42
2023/06/22 14:08:39;;;;;;;;;;;24.70;99.90;;;;;;5130716;28;19986;-43
2023/06/22 14:11:04;;;;;;;;;;;24.70;99.90;;;;;;5118721;28;19912;-46